createdAt,value
2023-02-02T00:01:01.799Z,100843.81
2023-02-02T00:03:28.599Z,100839.41
2023-02-02T00:05:55.222Z,100838.13
2023-02-02T00:08:22.201Z,100842.75
2023-02-02T00:10:50.604Z,100848.63
2023-02-02T00:13:18.303Z,100836.03
2023-02-02T00:15:45.483Z,100838.97
2023-02-02T00:18:12.467Z,100826.38
2023-02-02T00:20:39.321Z,100825.97
2023-02-02T00:23:06.041Z,100815.44
2023-02-02T00:25:33.061Z,100820.69
2023-02-02T00:27:59.690Z,100820.47
2023-02-02T00:30:26.343Z,100820.69
2023-02-02T00:32:53.274Z,100832.22
2023-02-02T00:35:20.225Z,100830.56
2023-02-02T00:37:46.859Z,100832.22
2023-02-02T00:40:13.865Z,100820.06
2023-02-02T00:42:40.998Z,100825.75
2023-02-02T00:45:16.905Z,100832.44
2023-02-02T00:47:50.038Z,100832.66
2023-02-02T00:50:21.945Z,100831.00
2023-02-02T00:52:49.331Z,100832.66
2023-02-02T00:55:17.007Z,100834.34
2023-02-02T00:57:44.445Z,100831.00
2023-02-02T01:00:15.261Z,100828.25
2023-02-02T01:02:42.161Z,100823.81
2023-02-02T01:05:09.569Z,100828.44
2023-02-02T01:07:36.232Z,100827.19
2023-02-02T01:10:04.049Z,100831.81
2023-02-02T01:12:31.445Z,100842.09
2023-02-02T01:14:58.274Z,100841.91
2023-02-02T01:17:25.121Z,100839.56
2023-02-02T01:19:51.801Z,100835.16
2023-02-02T01:22:18.505Z,100834.34
2023-02-02T01:24:45.280Z,100844.63
2023-02-02T01:27:11.918Z,100845.25
2023-02-02T01:29:38.538Z,100847.94
2023-02-02T01:32:05.318Z,100852.78
2023-02-02T01:34:32.019Z,100849.41
2023-02-02T01:36:58.796Z,100850.25
2023-02-02T01:39:28.009Z,100847.50
2023-02-02T01:41:55.505Z,100849.19
2023-02-02T01:44:53.594Z,100835.97
2023-02-02T01:47:23.592Z,100829.69
2023-02-02T01:49:50.810Z,100834.50
2023-02-02T01:52:19.930Z,100824.81
2023-02-02T01:54:53.198Z,100823.53
2023-02-02T01:57:32.944Z,100820.13
2023-02-02T02:00:03.202Z,100807.31
2023-02-02T02:02:31.377Z,100809.38
2023-02-02T02:05:01.758Z,100800.31
2023-02-02T02:07:28.957Z,100811.22
2023-02-02T02:09:55.704Z,100808.88
2023-02-02T02:12:22.349Z,100821.41
2023-02-02T02:15:09.744Z,100822.06
2023-02-02T02:18:12.189Z,100822.69
2023-02-02T02:21:19.297Z,100813.06
2023-02-02T02:24:13.331Z,100807.00
2023-02-02T02:26:53.814Z,100814.56
2023-02-02T02:29:26.507Z,100825.69
2023-02-02T02:32:08.938Z,100824.66
2023-02-02T02:34:38.606Z,100827.63
2023-02-02T02:37:15.156Z,100823.25
2023-02-02T02:39:46.557Z,100821.16
2023-02-02T02:42:18.927Z,100827.88
2023-02-02T02:44:48.780Z,100821.97
2023-02-02T02:47:17.400Z,100817.59
2023-02-02T02:49:45.841Z,100819.03
2023-02-02T02:52:12.682Z,100821.97
2023-02-02T02:54:50.497Z,100823.88
2023-02-02T02:57:34.976Z,100813.56
2023-02-02T03:00:23.287Z,100820.28
2023-02-02T03:03:20.297Z,100814.34
2023-02-02T03:06:08.293Z,100819.41
2023-02-02T03:08:44.131Z,100813.44
2023-02-02T03:11:13.737Z,100814.28
2023-02-02T03:13:41.625Z,100818.88
2023-02-02T03:16:09.606Z,100819.25
2023-02-02T03:18:36.806Z,100817.97
2023-02-02T03:21:03.975Z,100823.81
2023-02-02T03:23:30.753Z,100824.63
2023-02-02T03:25:57.417Z,100816.22
2023-02-02T03:28:25.218Z,100817.50
2023-02-02T03:30:53.485Z,100814.09
2023-02-02T03:33:20.901Z,100823.13
2023-02-02T03:35:47.763Z,100818.09
2023-02-02T03:38:14.366Z,100824.38
2023-02-02T03:40:41.056Z,100829.63
2023-02-02T03:43:08.193Z,100828.41
2023-02-02T03:45:35.959Z,100831.53
2023-02-02T03:48:06.000Z,100823.81
2023-02-02T03:50:33.192Z,100823.41
2023-02-02T03:53:00.382Z,100821.13
2023-02-02T03:55:27.043Z,100821.78
2023-02-02T03:57:53.736Z,100818.41
2023-02-02T04:00:21.565Z,100809.34
2023-02-02T04:02:48.305Z,100798.41
2023-02-02T04:05:14.975Z,100798.97
2023-02-02T04:07:41.616Z,100792.63
2023-02-02T04:10:08.824Z,100799.25
2023-02-02T04:12:36.085Z,100805.94
2023-02-02T04:15:03.446Z,100819.75
2023-02-02T04:17:30.121Z,100818.84
2023-02-02T04:19:58.502Z,100825.34
2023-02-02T04:22:26.253Z,100819.91
2023-02-02T04:24:53.166Z,100823.84
2023-02-02T04:27:19.950Z,100825.97
2023-02-02T04:29:46.600Z,100827.47
2023-02-02T04:32:16.117Z,100824.78
2023-02-02T04:34:43.300Z,100817.72
2023-02-02T04:37:11.540Z,100807.25
2023-02-02T04:39:38.272Z,100807.72
2023-02-02T04:42:05.040Z,100809.22
2023-02-02T04:44:32.387Z,100800.63
2023-02-02T04:46:59.437Z,100796.91
2023-02-02T04:49:26.164Z,100805.25
2023-02-02T04:51:52.755Z,100789.75
2023-02-02T04:54:19.449Z,100789.75
2023-02-02T04:56:46.115Z,100782.22
2023-02-02T04:59:12.767Z,100787.66
2023-02-02T05:01:39.420Z,100783.91
2023-02-02T05:04:06.127Z,100775.50
2023-02-02T05:06:32.745Z,100784.94
2023-02-02T05:09:00.112Z,100785.34
2023-02-02T05:11:27.266Z,100796.44
2023-02-02T05:13:55.447Z,100794.31
2023-02-02T05:16:23.754Z,100789.06
2023-02-02T05:18:55.407Z,100790.06
2023-02-02T05:21:22.577Z,100789.06
2023-02-02T05:23:49.298Z,100793.28
2023-02-02T05:26:26.709Z,100782.00
2023-02-02T05:28:53.841Z,100776.78
2023-02-02T05:31:21.172Z,100783.50
2023-02-02T05:33:47.907Z,100784.78
2023-02-02T05:36:14.859Z,100786.47
2023-02-02T05:38:41.485Z,100778.91
2023-02-02T05:41:08.204Z,100784.81
2023-02-02T05:43:35.653Z,100784.44
2023-02-02T05:46:02.524Z,100797.44
2023-02-02T05:48:29.383Z,100798.53
2023-02-02T05:51:05.756Z,100798.34
2023-02-02T05:53:33.824Z,100798.81
2023-02-02T05:56:00.592Z,100801.09
2023-02-02T05:58:28.178Z,100800.50
2023-02-02T06:00:56.598Z,100809.50
2023-02-02T06:03:23.823Z,100804.72
2023-02-02T06:05:50.707Z,100809.94
2023-02-02T06:08:17.397Z,100811.63
2023-02-02T06:10:44.291Z,100816.00
2023-02-02T06:13:12.016Z,100817.06
2023-02-02T06:15:39.251Z,100817.66
2023-02-02T06:18:08.376Z,100826.06
2023-02-02T06:20:35.638Z,100818.50
2023-02-02T06:23:02.559Z,100828.19
2023-02-02T06:25:29.229Z,100827.13
2023-02-02T06:28:00.031Z,100824.19
2023-02-02T06:30:27.569Z,100826.53
2023-02-02T06:32:54.468Z,100825.72
2023-02-02T06:35:21.361Z,100833.72
2023-02-02T06:37:49.169Z,100829.94
2023-02-02T06:40:16.361Z,100837.50
2023-02-02T06:42:43.733Z,100833.94
2023-02-02T06:45:11.356Z,100825.75
2023-02-02T06:47:38.353Z,100830.78
2023-02-02T06:50:05.529Z,100823.88
2023-02-02T06:52:32.172Z,100828.50
2023-02-02T06:54:58.779Z,100831.66
2023-02-02T06:57:25.558Z,100823.47
2023-02-02T06:59:52.373Z,100826.22
2023-02-02T07:02:19.343Z,100829.78
2023-02-02T07:04:46.129Z,100834.16
2023-02-02T07:07:12.812Z,100834.16
2023-02-02T07:09:39.735Z,100837.34
2023-02-02T07:12:06.869Z,100836.72
2023-02-02T07:14:33.877Z,100835.50
2023-02-02T07:17:00.580Z,100840.75
2023-02-02T07:19:27.309Z,100836.34
2023-02-02T07:21:54.267Z,100835.50
2023-02-02T07:24:24.275Z,100838.00
2023-02-02T07:26:50.959Z,100837.16
2023-02-02T07:29:17.676Z,100832.94
2023-02-02T07:31:44.656Z,100840.94
2023-02-02T07:34:12.070Z,100833.78
2023-02-02T07:36:38.799Z,100839.25
2023-02-02T07:39:05.769Z,100835.50
2023-02-02T07:41:35.166Z,100836.72
2023-02-02T07:44:02.498Z,100837.78
2023-02-02T07:46:30.135Z,100837.59
2023-02-02T07:48:57.155Z,100834.66
2023-02-02T07:51:25.619Z,100836.78
2023-02-02T07:53:54.286Z,100842.47
2023-02-02T07:56:23.626Z,100845.84
2023-02-02T07:58:53.201Z,100844.78
2023-02-02T08:01:22.951Z,100852.75
2023-02-02T08:03:50.753Z,100850.22
2023-02-02T08:06:26.209Z,100840.56
2023-02-02T08:08:52.832Z,100838.88
2023-02-02T08:11:22.037Z,100838.00
2023-02-02T08:13:53.915Z,100842.84
2023-02-02T08:16:22.701Z,100832.75
2023-02-02T08:18:50.137Z,100839.69
2023-02-02T08:21:17.296Z,100837.16
2023-02-02T08:23:45.650Z,100842.41
2023-02-02T08:26:18.612Z,100847.69
2023-02-02T08:28:48.204Z,100853.13
2023-02-02T08:31:21.684Z,100860.66
2023-02-02T08:33:48.785Z,100856.28
2023-02-02T08:36:21.653Z,100861.97
2023-02-02T08:38:49.159Z,100864.69
2023-02-02T08:41:18.484Z,100863.84
2023-02-02T08:43:46.275Z,100868.06
2023-02-02T08:46:15.002Z,100864.94
2023-02-02T08:48:42.304Z,100868.91
2023-02-02T08:51:11.853Z,100863.06
2023-02-02T08:53:38.751Z,100857.19
2023-02-02T08:56:09.368Z,100857.41
2023-02-02T08:58:36.276Z,100872.34
2023-02-02T09:01:15.855Z,100860.16
2023-02-02T09:03:42.648Z,100862.06
2023-02-02T09:06:18.876Z,100875.09
2023-02-02T09:08:46.631Z,100869.03
2023-02-02T09:11:17.851Z,100880.16
2023-02-02T09:13:46.668Z,100879.53
2023-02-02T09:16:16.213Z,100878.69
2023-02-02T09:18:44.522Z,100876.81
2023-02-02T09:21:14.812Z,100877.69
2023-02-02T09:23:43.081Z,100882.28
2023-02-02T09:26:13.886Z,100879.34
2023-02-02T09:28:42.203Z,100873.03
2023-02-02T09:31:09.897Z,100875.34
2023-02-02T09:33:37.814Z,100875.13
2023-02-02T09:36:08.971Z,100869.25
2023-02-02T09:38:36.579Z,100875.38
2023-02-02T09:41:26.310Z,100873.47
2023-02-02T09:43:52.905Z,100879.34
2023-02-02T09:46:47.590Z,100878.91
2023-02-02T09:49:28.065Z,100867.56
2023-02-02T09:52:02.668Z,100868.63
2023-02-02T09:54:34.196Z,100856.41
2023-02-02T09:57:04.781Z,100864.41
2023-02-02T09:59:36.914Z,100854.94
2023-02-02T10:02:12.064Z,100846.09
2023-02-02T10:04:40.999Z,100853.25
2023-02-02T10:07:18.797Z,100855.78
2023-02-02T10:09:55.683Z,100847.78
2023-02-02T10:12:48.520Z,100852.81
2023-02-02T10:15:37.629Z,100850.06
2023-02-02T10:18:27.381Z,100852.38
2023-02-02T10:21:13.795Z,100858.25
2023-02-02T10:23:44.538Z,100863.28
2023-02-02T10:26:42.260Z,100859.69
2023-02-02T10:29:23.866Z,100878.41
2023-02-02T10:32:14.827Z,100879.00
2023-02-02T10:34:42.789Z,100875.44
2023-02-02T10:37:35.132Z,100874.97
2023-02-02T10:40:28.842Z,100873.72
2023-02-02T10:43:30.861Z,100888.19
2023-02-02T10:45:59.162Z,100882.09
2023-02-02T10:48:35.978Z,100886.31
2023-02-02T10:51:18.091Z,100880.81
2023-02-02T10:53:51.272Z,100884.38
2023-02-02T10:56:31.586Z,100884.53
2023-02-02T10:59:22.180Z,100884.09
2023-02-02T11:01:49.376Z,100884.91
2023-02-02T11:04:35.699Z,100873.53
2023-02-02T11:07:02.373Z,100883.81
2023-02-02T11:09:35.301Z,100889.66
2023-02-02T11:12:23.077Z,100885.91
2023-02-02T11:14:52.332Z,100876.78
2023-02-02T11:17:24.327Z,100877.38
2023-02-02T11:19:51.755Z,100876.34
2023-02-02T11:22:35.571Z,100864.28
2023-02-02T11:25:22.307Z,100865.50
2023-02-02T11:27:49.431Z,100866.63
2023-02-02T11:30:34.141Z,100860.94
2023-02-02T11:33:34.342Z,100862.66
2023-02-02T11:36:17.729Z,100852.31
2023-02-02T11:38:45.531Z,100858.53
2023-02-02T11:41:13.895Z,100853.50
2023-02-02T11:43:51.309Z,100846.28
2023-02-02T11:46:24.771Z,100847.91
2023-02-02T11:49:00.854Z,100852.53
2023-02-02T11:51:28.961Z,100850.88
2023-02-02T11:54:07.694Z,100847.53
2023-02-02T11:56:39.201Z,100842.47
2023-02-02T11:59:06.011Z,100838.34
2023-02-02T12:01:44.127Z,100844.25
2023-02-02T12:04:13.665Z,100852.94
2023-02-02T12:06:41.013Z,100836.69
2023-02-02T12:09:23.225Z,100832.63
2023-02-02T12:12:12.124Z,100833.34
2023-02-02T12:14:58.664Z,100841.41
2023-02-02T12:17:43.009Z,100835.25
2023-02-02T12:20:26.697Z,100833.53
2023-02-02T12:22:56.577Z,100835.44
2023-02-02T12:25:51.018Z,100832.84
2023-02-02T12:28:58.837Z,100825.69
2023-02-02T12:31:38.180Z,100836.06
2023-02-02T12:34:20.347Z,100840.31
2023-02-02T12:37:44.055Z,100831.84
2023-02-02T12:40:37.925Z,100819.38
2023-02-02T12:43:17.565Z,100815.34
2023-02-02T12:45:53.206Z,100821.22
2023-02-02T12:48:27.228Z,100822.84
2023-02-02T12:51:12.527Z,100815.69
2023-02-02T12:53:48.083Z,100823.22
2023-02-02T12:57:03.863Z,100811.19
2023-02-02T12:59:48.392Z,100814.31
2023-02-02T13:02:34.189Z,100808.84
2023-02-02T13:05:13.094Z,100806.34
2023-02-02T13:07:48.893Z,100808.25
2023-02-02T13:10:18.865Z,100797.19
2023-02-02T13:12:57.510Z,100799.25
2023-02-02T13:15:36.170Z,100817.53
2023-02-02T13:18:19.656Z,100794.56
2023-02-02T13:20:59.696Z,100807.81
2023-02-02T13:23:28.975Z,100803.63
2023-02-02T13:26:07.414Z,100805.72
2023-02-02T13:29:22.203Z,100803.13
2023-02-02T13:31:58.326Z,100814.47
2023-02-02T13:34:46.124Z,100817.03
2023-02-02T13:37:32.330Z,100813.25
2023-02-02T13:40:03.071Z,100808.59
2023-02-02T13:42:47.599Z,100802.63
2023-02-02T13:45:35.973Z,100809.81
2023-02-02T13:48:11.877Z,100794.25
2023-02-02T13:51:04.145Z,100806.16
2023-02-02T13:53:30.743Z,100801.06
2023-02-02T13:56:40.988Z,100808.66
2023-02-02T13:59:22.929Z,100816.75
2023-02-02T14:01:52.497Z,100809.19
2023-02-02T14:04:26.259Z,100811.72
2023-02-02T14:07:07.376Z,100810.41
2023-02-02T14:09:37.335Z,100827.13
2023-02-02T14:12:09.763Z,100820.25
2023-02-02T14:14:39.838Z,100809.94
2023-02-02T14:17:27.690Z,100813.50
2023-02-02T14:20:01.830Z,100807.63
2023-02-02T14:22:52.734Z,100820.47
2023-02-02T14:25:36.810Z,100807.97
2023-02-02T14:28:11.138Z,100804.78
2023-02-02T14:30:39.889Z,100803.13
2023-02-02T14:33:21.787Z,100808.38
2023-02-02T14:35:48.363Z,100797.63
2023-02-02T14:38:39.580Z,100795.47
2023-02-02T14:41:49.140Z,100787.50
2023-02-02T14:44:16.131Z,100792.97
2023-02-02T14:46:49.435Z,100800.13
2023-02-02T14:49:19.305Z,100805.03
2023-02-02T14:51:51.247Z,100813.84
2023-02-02T14:54:24.389Z,100810.03
2023-02-02T14:56:55.237Z,100816.59
2023-02-02T14:59:34.088Z,100813.69
2023-02-02T15:02:30.412Z,100821.69
2023-02-02T15:05:29.183Z,100813.94
2023-02-02T15:08:13.892Z,100812.19
2023-02-02T15:10:53.937Z,100827.22
2023-02-02T15:13:24.495Z,100823.44
2023-02-02T15:16:04.519Z,100819.63
2023-02-02T15:18:41.074Z,100819.44
2023-02-02T15:21:08.533Z,100833.34
2023-02-02T15:23:46.842Z,100835.50
2023-02-02T15:26:19.923Z,100831.94
2023-02-02T15:28:59.655Z,100837.38
2023-02-02T15:31:52.250Z,100836.53
2023-02-02T15:34:24.976Z,100838.44
2023-02-02T15:36:55.250Z,100843.97
2023-02-02T15:39:41.267Z,100842.53
2023-02-02T15:42:39.588Z,100846.72
2023-02-02T15:45:07.353Z,100838.72
2023-02-02T15:47:38.037Z,100841.22
2023-02-02T15:50:19.015Z,100829.94
2023-02-02T15:52:51.801Z,100831.78
2023-02-02T15:55:23.411Z,100827.34
2023-02-02T15:57:54.240Z,100829.94
2023-02-02T16:00:36.391Z,100830.00
2023-02-02T16:03:24.830Z,100831.28
2023-02-02T16:05:56.750Z,100840.19
2023-02-02T16:08:35.038Z,100833.88
2023-02-02T16:11:06.737Z,100843.78
2023-02-02T16:13:33.831Z,100852.91
2023-02-02T16:16:07.147Z,100848.69
2023-02-02T16:18:35.756Z,100839.63
2023-02-02T16:21:11.498Z,100825.53
2023-02-02T16:23:39.159Z,100835.25
2023-02-02T16:26:07.364Z,100834.88
2023-02-02T16:28:35.476Z,100845.63
2023-02-02T16:31:03.056Z,100839.13
2023-02-02T16:33:35.774Z,100854.94
2023-02-02T16:36:36.511Z,100852.03
2023-02-02T16:39:03.168Z,100848.03
2023-02-02T16:41:35.490Z,100842.16
2023-02-02T16:44:41.153Z,100834.34
2023-02-02T16:47:30.984Z,100829.13
2023-02-02T16:50:09.624Z,100835.09
2023-02-02T16:53:06.416Z,100834.69
2023-02-02T16:55:49.423Z,100855.75
2023-02-02T16:58:20.801Z,100845.41
2023-02-02T17:01:16.571Z,100846.03
2023-02-02T17:03:54.673Z,100814.88
2023-02-02T17:06:50.168Z,100836.84
2023-02-02T17:09:41.218Z,100832.88
2023-02-02T17:12:32.149Z,100846.13
2023-02-02T17:15:06.119Z,100854.53
2023-02-02T17:17:32.799Z,100868.03
2023-02-02T17:19:59.470Z,100870.56
2023-02-02T17:22:27.824Z,100876.25
2023-02-02T17:24:54.686Z,100876.88
2023-02-02T17:27:24.036Z,100887.16
2023-02-02T17:29:50.710Z,100858.75
2023-02-02T17:32:17.376Z,100894.13
2023-02-02T17:34:46.208Z,100900.44
2023-02-02T17:37:12.859Z,100894.53
2023-02-02T17:39:39.519Z,100891.19
2023-02-02T17:42:06.784Z,100875.81
2023-02-02T17:44:34.236Z,100882.34
2023-02-02T17:47:01.016Z,100890.38
2023-02-02T17:49:27.941Z,100867.22
2023-02-02T17:51:55.061Z,100876.09
2023-02-02T17:54:21.776Z,100885.75
2023-02-02T17:56:48.421Z,100885.34
2023-02-02T17:59:15.068Z,100891.22
2023-02-02T18:01:42.003Z,100883.44
2023-02-02T18:04:12.774Z,100897.53
2023-02-02T18:06:40.115Z,100899.66
2023-02-02T18:09:07.154Z,100903.47
2023-02-02T18:11:34.156Z,100918.19
2023-02-02T18:14:01.418Z,100920.34
2023-02-02T18:16:28.762Z,100919.03
2023-02-02T18:18:57.471Z,100920.28
2023-02-02T18:21:26.541Z,100920.50
2023-02-02T18:23:53.229Z,100913.19
2023-02-02T18:26:22.422Z,100906.00
2023-02-02T18:28:50.271Z,100931.28
2023-02-02T18:31:19.929Z,100928.97
2023-02-02T18:33:47.511Z,100940.16
2023-02-02T18:36:20.173Z,100936.56
2023-02-02T18:38:48.944Z,100914.47
2023-02-02T18:41:17.928Z,100920.81
2023-02-02T18:43:45.594Z,100925.81
2023-02-02T18:46:14.916Z,100926.88
2023-02-02T18:48:42.751Z,100930.91
2023-02-02T18:51:16.061Z,100946.28
2023-02-02T18:53:43.747Z,100937.00
2023-02-02T18:56:12.973Z,100935.94
2023-02-02T18:58:40.253Z,100921.22
2023-02-02T19:01:09.133Z,100925.63
2023-02-02T19:03:36.732Z,100924.56
2023-02-02T19:06:23.369Z,100916.34
2023-02-02T19:08:50.307Z,100938.06
2023-02-02T19:11:19.686Z,100940.16
2023-02-02T19:13:48.088Z,100937.66
2023-02-02T19:16:15.053Z,100934.31
2023-02-02T19:18:42.906Z,100937.47
2023-02-02T19:21:11.815Z,100930.97
2023-02-02T19:23:41.225Z,100933.94
2023-02-02T19:26:29.493Z,100944.25
2023-02-02T19:29:05.799Z,100942.38
2023-02-02T19:31:32.665Z,100934.16
2023-02-02T19:34:01.524Z,100930.38
2023-02-02T19:36:30.973Z,100931.66
2023-02-02T19:39:18.894Z,100928.06
2023-02-02T19:41:45.822Z,100924.28
2023-02-02T19:44:21.377Z,100928.06
2023-02-02T19:46:50.729Z,100932.28
2023-02-02T19:49:17.408Z,100928.34
2023-02-02T19:51:50.992Z,100928.94
2023-02-02T19:54:29.759Z,100919.50
2023-02-02T19:57:06.612Z,100918.88
2023-02-02T19:59:34.890Z,100915.72
2023-02-02T20:02:23.160Z,100919.75
2023-02-02T20:05:00.193Z,100923.69
2023-02-02T20:07:27.005Z,100940.34
2023-02-02T20:09:55.153Z,100947.88
2023-02-02T20:12:27.966Z,100943.47
2023-02-02T20:14:56.517Z,100934.84
2023-02-02T20:17:31.988Z,100923.91
2023-02-02T20:20:00.149Z,100926.47
2023-02-02T20:22:29.153Z,100932.97
2023-02-02T20:25:06.051Z,100942.44
2023-02-02T20:27:34.147Z,100948.97
2023-02-02T20:30:18.664Z,100934.47
2023-02-02T20:32:45.495Z,100940.53
2023-02-02T20:35:39.533Z,100918.66
2023-02-02T20:38:29.730Z,100918.06
2023-02-02T20:40:58.086Z,100911.94
2023-02-02T20:43:24.928Z,100909.59
2023-02-02T20:45:51.741Z,100927.28
2023-02-02T20:48:19.460Z,100925.22
2023-02-02T20:50:47.312Z,100919.31
2023-02-02T20:53:16.482Z,100907.09
2023-02-02T20:55:44.974Z,100900.38
2023-02-02T20:58:12.138Z,100917.00
2023-02-02T21:00:39.141Z,100925.63
2023-02-02T21:03:05.755Z,100926.03
2023-02-02T21:05:32.403Z,100936.56
2023-02-02T21:07:59.015Z,100935.50
2023-02-02T21:10:26.449Z,100938.03
2023-02-02T21:12:53.319Z,100925.84
2023-02-02T21:15:20.772Z,100922.03
2023-02-02T21:17:47.654Z,100912.56
2023-02-02T21:20:15.327Z,100903.94
2023-02-02T21:22:42.266Z,100910.91
2023-02-02T21:25:10.599Z,100897.00
2023-02-02T21:27:41.921Z,100906.03
2023-02-02T21:30:10.098Z,100905.22
2023-02-02T21:32:37.321Z,100905.63
2023-02-02T21:35:05.202Z,100913.84
2023-02-02T21:37:38.740Z,100915.72
2023-02-02T21:40:14.761Z,100918.47
2023-02-02T21:42:48.772Z,100904.16
2023-02-02T21:45:30.780Z,100910.47
2023-02-02T21:47:59.289Z,100908.34
2023-02-02T21:50:46.155Z,100898.28
2023-02-02T21:53:16.864Z,100899.09
2023-02-02T21:55:52.394Z,100890.69
2023-02-02T21:58:32.521Z,100881.47
2023-02-02T22:01:14.637Z,100872.00
2023-02-02T22:03:46.647Z,100867.19
2023-02-02T22:06:31.860Z,100880.59
2023-02-02T22:09:14.042Z,100890.06
2023-02-02T22:11:48.240Z,100898.69
2023-02-02T22:14:41.042Z,100907.31
2023-02-02T22:17:41.214Z,100906.25
2023-02-02T22:20:17.429Z,100912.56
2023-02-02T22:22:50.065Z,100910.63
2023-02-02T22:25:17.317Z,100906.84
2023-02-02T22:27:48.901Z,100907.06
2023-02-02T22:30:36.828Z,100903.72
2023-02-02T22:33:05.884Z,100914.19
2023-02-02T22:35:33.561Z,100918.41
2023-02-02T22:38:00.791Z,100929.75
2023-02-02T22:40:27.949Z,100938.97
2023-02-02T22:42:57.682Z,100949.66
2023-02-02T22:45:24.692Z,100954.94
2023-02-02T22:47:51.859Z,100952.84
2023-02-02T22:50:21.409Z,100955.16
2023-02-02T22:52:48.491Z,100951.38
2023-02-02T22:55:15.617Z,100958.34
2023-02-02T22:57:42.347Z,100958.34
2023-02-02T23:00:12.818Z,100960.47
2023-02-02T23:02:40.473Z,100953.94
2023-02-02T23:05:08.951Z,100952.91
2023-02-02T23:07:35.605Z,100948.06
2023-02-02T23:10:02.570Z,100952.47
2023-02-02T23:12:30.360Z,100961.31
2023-02-02T23:14:56.993Z,100955.03
2023-02-02T23:17:23.760Z,100947.44
2023-02-02T23:19:50.402Z,100953.53
2023-02-02T23:22:17.013Z,100954.41
2023-02-02T23:24:44.579Z,100957.75
2023-02-02T23:27:12.991Z,100953.53
2023-02-02T23:29:39.956Z,100948.69
2023-02-02T23:32:07.226Z,100950.41
2023-02-02T23:34:33.936Z,100948.28
2023-02-02T23:37:00.592Z,100942.81
2023-02-02T23:39:27.244Z,100928.53
2023-02-02T23:41:53.932Z,100929.38
2023-02-02T23:44:20.541Z,100925.19
2023-02-02T23:46:47.400Z,100931.50
2023-02-02T23:49:14.348Z,100915.94
2023-02-02T23:51:41.078Z,100927.69
2023-02-02T23:54:10.101Z,100922.84
2023-02-02T23:56:37.329Z,100918.44
2023-02-02T23:59:04.007Z,100922.22
